Time;durP1;ratioP1;P1;durP2;ratioP2;P2;SDS_P1;SDS_P2;PMS_P1;PMS_P2;Temp;Humidity;BMP_temperature;BMP_pressure;BME280_temperature;BME280_humidity;BME280_pressure;Samples;Min_cycle;Max_cycle;Signal;HPM_P1;HPM_P2
2022/07/17 00:02:06;;;;;;;1.55;1.20;;;15.70;99.90;;;;;;4954204;29;20031;-73
2022/07/17 00:04:31;;;;;;;1.20;1.10;;;15.60;99.90;;;;;;4938387;29;20475;-73
2022/07/17 00:06:57;;;;;;;6.43;1.40;;;15.60;99.90;;;;;;4953995;29;20036;-74
2022/07/17 00:09:23;;;;;;;7.53;1.50;;;15.60;99.90;;;;;;4955244;29;20085;-73
2022/07/17 00:11:48;;;;;;;2.92;1.77;;;15.60;99.90;;;;;;4938521;29;20387;-73
2022/07/17 00:14:14;;;;;;;8.77;1.58;;;15.50;99.90;;;;;;4938101;29;20125;-73
2022/07/17 00:16:40;;;;;;;4.68;1.75;;;15.50;99.90;;;;;;4937971;29;20139;-73
2022/07/17 00:19:06;;;;;;;4.20;1.65;;;15.60;99.90;;;;;;4955573;29;20042;-73
2022/07/17 00:21:32;;;;;;;3.67;1.60;;;15.60;99.90;;;;;;4955373;29;20079;-74
2022/07/17 00:23:58;;;;;;;2.70;1.48;;;15.60;99.90;;;;;;4938175;29;20053;-73
2022/07/17 00:26:24;;;;;;;3.50;1.65;;;15.70;99.90;;;;;;4954019;29;20529;-73
2022/07/17 00:28:49;;;;;;;2.90;1.75;;;15.70;99.90;;;;;;4937970;29;20039;-73
2022/07/17 00:31:15;;;;;;;3.00;1.52;;;15.70;99.90;;;;;;4955289;29;20031;-73
2022/07/17 00:33:41;;;;;;;4.70;1.83;;;15.70;99.90;;;;;;4937963;29;20030;-73
2022/07/17 00:36:07;;;;;;;4.43;1.48;;;15.70;99.90;;;;;;4938028;29;20395;-73
2022/07/17 00:38:33;;;;;;;3.65;1.55;;;15.70;99.90;;;;;;4954147;29;20050;-73
2022/07/17 00:40:59;;;;;;;7.78;1.50;;;15.70;99.90;;;;;;4954780;28;20161;-73
2022/07/17 00:43:26;;;;;;;3.63;1.60;;;15.70;99.90;;;;;;4957309;29;20475;-74
2022/07/17 00:46:03;;;;;;;6.53;1.83;;;15.70;99.90;;;;;;4957033;29;20486;-74
2022/07/17 00:48:29;;;;;;;3.55;1.83;;;15.70;99.90;;;;;;4941692;29;20086;-73
2022/07/17 00:50:55;;;;;;;5.40;1.95;;;15.70;99.90;;;;;;4958503;29;20027;-74
2022/07/17 00:53:21;;;;;;;8.98;2.40;;;15.70;99.90;;;;;;4958288;29;20031;-73
2022/07/17 00:55:48;;;;;;;5.13;1.75;;;15.70;99.90;;;;;;4941063;29;20027;-74
2022/07/17 00:58:20;;;;;;;6.88;1.40;;;15.70;99.90;;;;;;4958495;29;20036;-73
2022/07/17 01:00:47;;;;;;;10.38;1.58;;;15.70;99.90;;;;;;4941226;29;20356;-74
2022/07/17 01:03:14;;;;;;;3.83;1.70;;;15.60;99.90;;;;;;4957066;29;20050;-73
2022/07/17 01:05:40;;;;;;;5.85;1.80;;;15.60;99.90;;;;;;4958148;29;20019;-73
2022/07/17 01:08:06;;;;;;;9.65;1.80;;;15.50;99.90;;;;;;4940986;29;20036;-73
2022/07/17 01:10:32;;;;;;;11.15;1.95;;;15.50;99.90;;;;;;4958469;29;20391;-73
2022/07/17 01:12:58;;;;;;;3.10;1.45;;;15.50;99.90;;;;;;4956950;29;20039;-73
2022/07/17 01:15:24;;;;;;;4.72;2.53;;;15.40;99.90;;;;;;4958120;29;20142;-74
2022/07/17 01:17:50;;;;;;;4.95;1.55;;;15.40;99.90;;;;;;4956741;29;20423;-74
2022/07/17 01:20:15;;;;;;;11.45;2.30;;;15.30;99.90;;;;;;4957968;29;20411;-73
2022/07/17 01:22:46;;;;;;;8.35;1.65;;;15.20;99.90;;;;;;4940391;29;20399;-73
2022/07/17 01:25:13;;;;;;;7.07;2.10;;;15.10;99.90;;;;;;4941125;29;20078;-73
2022/07/17 01:27:39;;;;;;;7.97;2.50;;;15.00;99.90;;;;;;4957799;29;20047;-73
2022/07/17 01:30:05;;;;;;;5.85;3.45;;;15.00;99.90;;;;;;4940982;29;20035;-74
2022/07/17 01:32:33;;;;;;;6.47;1.90;;;14.90;99.90;;;;;;4957727;29;20027;-73
2022/07/17 01:34:59;;;;;;;6.03;1.52;;;14.90;99.90;;;;;;4956628;29;20037;-73
2022/07/17 01:37:24;;;;;;;4.80;1.45;;;14.80;99.90;;;;;;4941141;29;20410;-73
2022/07/17 01:39:53;;;;;;;5.07;1.40;;;14.70;99.90;;;;;;4957627;29;20082;-73
2022/07/17 01:42:19;;;;;;;3.03;1.90;;;14.70;99.90;;;;;;4957372;29;20387;-73
2022/07/17 01:44:45;;;;;;;4.30;1.88;;;14.60;99.90;;;;;;4956357;29;20118;-73
2022/07/17 01:47:14;;;;;;;5.88;1.85;;;14.60;99.90;;;;;;4957192;29;20114;-73
2022/07/17 01:49:43;;;;;;;;;;;14.50;99.90;;;;;;4957877;29;20027;-73
2022/07/17 01:52:08;;;;;;;2.67;1.83;;;14.40;99.90;;;;;;4955583;28;19906;-74
2022/07/17 01:54:34;;;;;;;5.75;1.90;;;14.30;99.90;;;;;;4957109;29;20467;-73
2022/07/17 01:56:59;;;;;;;9.48;2.03;;;14.20;99.90;;;;;;4957321;29;20035;-73
2022/07/17 01:59:25;;;;;;;5.05;2.13;;;14.20;99.90;;;;;;4955957;29;20024;-73
2022/07/17 02:01:51;;;;;;;2.92;1.38;;;14.10;99.90;;;;;;4955619;29;20023;-73
2022/07/17 02:04:16;;;;;;;4.40;1.58;;;14.00;99.90;;;;;;4956859;29;20034;-75
2022/07/17 02:06:42;;;;;;;2.88;1.65;;;13.90;99.90;;;;;;4956645;29;20043;-73
2022/07/17 02:09:07;;;;;;;2.15;1.92;;;13.90;99.90;;;;;;4957107;29;20027;-73
2022/07/17 02:11:33;;;;;;;3.00;1.80;;;13.80;99.90;;;;;;4939761;29;20086;-73
2022/07/17 02:13:59;;;;;;;5.70;1.88;;;13.80;99.90;;;;;;4956920;29;20072;-73
2022/07/17 02:16:24;;;;;;;2.75;1.75;;;13.70;99.90;;;;;;4957470;29;20506;-73
2022/07/17 02:18:50;;;;;;;3.50;1.77;;;13.60;99.90;;;;;;4957182;29;20027;-73
2022/07/17 02:21:16;;;;;;;3.00;2.20;;;13.60;99.90;;;;;;4939400;29;20097;-73
2022/07/17 02:23:41;;;;;;;2.10;1.83;;;13.50;99.90;;;;;;4955813;29;20035;-73
2022/07/17 02:26:08;;;;;;;2.28;1.98;;;13.40;99.90;;;;;;4939369;29;20082;-73
2022/07/17 02:28:34;;;;;;;2.35;1.42;;;13.40;99.90;;;;;;4939531;29;20035;-73
2022/07/17 02:31:00;;;;;;;3.17;1.63;;;13.30;99.90;;;;;;4956722;29;20023;-73
2022/07/17 02:33:25;;;;;;;3.08;1.75;;;13.30;99.90;;;;;;4955273;29;20028;-73
2022/07/17 02:35:51;;;;;;;3.70;2.00;;;13.20;99.90;;;;;;4939362;29;20031;-73
2022/07/17 02:38:16;;;;;;;2.35;1.67;;;13.20;99.90;;;;;;4939964;29;20031;-73
2022/07/17 02:40:42;;;;;;;3.03;2.20;;;13.20;99.90;;;;;;4955063;29;20031;-73
2022/07/17 02:43:08;;;;;;;1.80;1.70;;;13.20;99.90;;;;;;4955537;29;20031;-73
2022/07/17 02:45:34;;;;;;;2.15;1.73;;;13.10;99.90;;;;;;4956679;29;20027;-73
2022/07/17 02:47:59;;;;;;;2.65;2.20;;;13.10;99.90;;;;;;4956388;29;20031;-73
2022/07/17 02:50:25;;;;;;;1.98;1.80;;;13.00;99.90;;;;;;4956268;29;20032;-73
2022/07/17 02:52:51;;;;;;;3.70;1.83;;;12.90;99.90;;;;;;4955087;29;20028;-72
2022/07/17 02:55:17;;;;;;;1.95;1.85;;;12.90;99.90;;;;;;4955009;29;20079;-72
2022/07/17 02:57:46;;;;;;;5.15;1.95;;;12.90;99.90;;;;;;4956162;29;20028;-73
2022/07/17 03:00:15;;;;;;;3.13;2.20;;;12.80;99.90;;;;;;4954924;29;20049;-73
2022/07/17 03:02:41;;;;;;;2.97;1.90;;;12.80;99.90;;;;;;4956057;29;20460;-73
2022/07/17 03:05:07;;;;;;;2.85;1.70;;;12.80;99.90;;;;;;4956170;28;20039;-72
2022/07/17 03:07:33;;;;;;;1.98;1.73;;;12.70;99.90;;;;;;4954716;29;20085;-73
2022/07/17 03:09:59;;;;;;;3.58;1.83;;;12.70;99.90;;;;;;4955338;29;20038;-73
2022/07/17 03:12:24;;;;;;;3.35;1.80;;;12.70;99.90;;;;;;4956425;29;20443;-73
2022/07/17 03:14:50;;;;;;;2.33;2.10;;;12.60;99.90;;;;;;4956022;29;20046;-73
2022/07/17 03:17:16;;;;;;;3.72;2.58;;;12.60;99.90;;;;;;4938829;29;20035;-73
2022/07/17 03:19:41;;;;;;;2.55;2.25;;;12.60;99.90;;;;;;4954691;29;20031;-73
2022/07/17 03:22:07;;;;;;;2.67;2.33;;;12.50;99.90;;;;;;4956065;29;20066;-72
2022/07/17 03:24:33;;;;;;;5.15;2.40;;;12.50;99.90;;;;;;4955520;29;20050;-73
2022/07/17 03:26:58;;;;;;;3.17;2.10;;;12.50;99.90;;;;;;4954454;29;20031;-73
2022/07/17 03:29:24;;;;;;;2.05;1.95;;;12.50;99.90;;;;;;4954546;29;20035;-73
2022/07/17 03:31:50;;;;;;;3.78;1.98;;;12.50;99.90;;;;;;4954561;29;20023;-73
2022/07/17 03:34:15;;;;;;;2.40;1.80;;;12.40;99.90;;;;;;4955662;29;20109;-73
2022/07/17 03:36:41;;;;;;;2.42;1.95;;;12.40;99.90;;;;;;4955749;29;20038;-73
2022/07/17 03:39:07;;;;;;;3.50;2.08;;;12.40;99.90;;;;;;4955389;29;20023;-73
2022/07/17 03:41:33;;;;;;;2.20;2.00;;;12.40;99.90;;;;;;4954332;29;20463;-73
2022/07/17 03:43:59;;;;;;;4.05;2.03;;;12.40;99.90;;;;;;4954550;29;20078;-73
2022/07/17 03:46:25;;;;;;;4.20;1.85;;;12.40;99.90;;;;;;4954078;29;20027;-73
2022/07/17 03:48:50;;;;;;;5.07;2.30;;;12.40;99.90;;;;;;4954687;29;20027;-73
2022/07/17 03:51:16;;;;;;;2.45;1.90;;;12.40;99.90;;;;;;4954392;29;20106;-73
2022/07/17 03:53:42;;;;;;;3.47;2.10;;;12.40;99.90;;;;;;4954290;29;20122;-73
2022/07/17 03:56:08;;;;;;;2.55;2.15;;;12.50;99.90;;;;;;4954211;29;20127;-73
2022/07/17 03:58:34;;;;;;;5.00;2.05;;;12.50;99.90;;;;;;4954228;29;20027;-73
2022/07/17 04:01:00;;;;;;;2.90;1.80;;;12.60;99.90;;;;;;4954238;29;20365;-73
2022/07/17 04:03:26;;;;;;;2.08;1.48;;;12.60;99.90;;;;;;4955515;29;20031;-73
2022/07/17 04:05:51;;;;;;;2.35;1.92;;;12.60;99.90;;;;;;4938070;29;20034;-72
2022/07/17 04:08:18;;;;;;;3.95;1.92;;;12.70;99.90;;;;;;4955029;29;20122;-71
2022/07/17 04:10:44;;;;;;;4.20;1.80;;;12.70;99.90;;;;;;4938280;29;20368;-71
2022/07/17 04:13:10;;;;;;;3.88;1.88;;;12.70;99.90;;;;;;4954527;29;20071;-71
2022/07/17 04:18:25;;;;;;;4.00;1.63;;;12.80;99.90;;;;;;4959304;29;20125;-72
2022/07/17 04:20:52;;;;;;;2.42;1.70;;;12.80;99.90;;;;;;4958884;29;20031;-71
2022/07/17 04:23:18;;;;;;;2.42;1.58;;;12.90;99.90;;;;;;4959162;29;20047;-72
2022/07/17 04:25:44;;;;;;;4.03;1.80;;;12.90;99.90;;;;;;4941728;29;20031;-72
2022/07/17 04:28:10;;;;;;;3.42;1.33;;;13.00;99.90;;;;;;4957626;29;20046;-72
2022/07/17 04:30:36;;;;;;;1.98;1.60;;;13.00;99.90;;;;;;4958869;29;20463;-80
2022/07/17 04:33:02;;;;;;;1.60;1.50;;;13.10;99.90;;;;;;4957459;29;20070;-62
2022/07/17 04:35:28;;;;;;;10.10;1.70;;;13.20;99.90;;;;;;4958793;29;20110;-63
2022/07/17 04:37:54;;;;;;;9.30;1.98;;;13.30;99.90;;;;;;4958764;29;20094;-63
2022/07/17 04:40:19;;;;;;;1.48;1.38;;;13.40;99.90;;;;;;4958652;29;20083;-63
2022/07/17 04:42:45;;;;;;;2.88;1.75;;;13.40;99.90;;;;;;4958849;29;20474;-63
2022/07/17 04:45:13;;;;;;;1.50;1.40;;;13.50;99.90;;;;;;4958750;29;20114;-63
2022/07/17 04:47:39;;;;;;;1.83;1.50;;;13.50;99.90;;;;;;4958465;29;20031;-63
2022/07/17 04:50:05;;;;;;;3.17;1.52;;;13.60;99.90;;;;;;4958602;29;20023;-64
2022/07/17 04:52:31;;;;;;;1.95;1.50;;;13.60;99.90;;;;;;4958654;29;20032;-74
2022/07/17 04:54:56;;;;;;;1.77;1.63;;;13.70;99.90;;;;;;4958216;29;20543;-74
2022/07/17 04:57:22;;;;;;;2.25;1.15;;;13.80;99.90;;;;;;4958488;29;20027;-74
2022/07/17 04:59:48;;;;;;;5.03;2.08;;;13.80;99.90;;;;;;4958110;29;20110;-79
2022/07/17 05:02:13;;;;;;;2.67;1.73;;;13.80;99.90;;;;;;4957110;29;20031;-80
2022/07/17 05:04:41;;;;;;;3.95;1.30;;;13.90;99.90;;;;;;4957356;29;20049;-78
2022/07/17 05:07:06;;;;;;;5.03;1.60;;;14.00;99.90;;;;;;4958438;29;20031;-81
2022/07/17 05:09:32;;;;;;;3.20;1.75;;;14.00;99.90;;;;;;4956872;29;20387;-78
2022/07/17 05:11:58;;;;;;;1.85;1.33;;;14.10;99.90;;;;;;4957136;29;20082;-79
2022/07/17 05:14:23;;;;;;;1.35;1.25;;;14.20;99.90;;;;;;4958333;29;20469;-81
2022/07/17 05:16:49;;;;;;;2.03;1.40;;;14.20;99.90;;;;;;4941064;29;20039;-76
2022/07/17 05:19:15;;;;;;;1.73;1.40;;;14.30;99.90;;;;;;4958252;29;20440;-82
2022/07/17 05:21:40;;;;;;;2.28;1.52;;;14.40;99.90;;;;;;4956755;29;20059;-80
2022/07/17 05:24:06;;;;;;;2.67;1.60;;;14.50;99.90;;;;;;4957001;29;20039;-82
2022/07/17 05:26:32;;;;;;;3.58;1.25;;;14.60;99.90;;;;;;4956610;28;20122;-81
2022/07/17 05:28:57;;;;;;;2.22;1.52;;;14.70;99.90;;;;;;4956877;29;20027;-80
2022/07/17 05:31:23;;;;;;;3.22;1.23;;;14.80;99.90;;;;;;4956702;29;20381;-74
2022/07/17 05:33:49;;;;;;;1.65;1.08;;;14.90;99.90;;;;;;4957768;29;20411;-73
2022/07/17 05:36:15;;;;;;;4.55;1.73;;;15.10;99.90;;;;;;4957741;29;20109;-73
2022/07/17 05:38:40;;;;;;;7.10;2.00;;;15.20;99.90;;;;;;4940535;29;20074;-73
2022/07/17 05:41:06;;;;;;;12.80;2.10;;;15.40;99.90;;;;;;4957918;29;20034;-70
2022/07/17 05:43:31;;;;;;;3.85;1.60;;;15.60;99.90;;;;;;4957274;29;20028;-71
2022/07/17 05:45:58;;;;;;;2.25;1.13;;;15.80;99.90;;;;;;4940230;29;20023;-72
2022/07/17 05:48:25;;;;;;;2.13;1.25;;;15.90;99.90;;;;;;4957144;29;20036;-71
2022/07/17 05:50:51;;;;;;;10.60;1.40;;;16.00;99.90;;;;;;4957703;29;20047;-69
2022/07/17 05:53:17;;;;;;;4.07;1.23;;;16.20;99.90;;;;;;4957165;29;20387;-68
2022/07/17 05:55:42;;;;;;;3.50;1.35;;;16.30;99.90;;;;;;4957829;29;20031;-70
2022/07/17 05:58:09;;;;;;;10.82;2.25;;;16.40;99.90;;;;;;4955947;29;20031;-69
2022/07/17 06:00:35;;;;;;;1.10;1.00;;;16.60;99.90;;;;;;4957307;29;20023;-70
2022/07/17 06:03:01;;;;;;;3.40;1.63;;;16.80;99.90;;;;;;4957665;29;20121;-69
2022/07/17 06:05:27;;;;;;;3.47;1.33;;;17.00;99.90;;;;;;4957240;29;20078;-68
2022/07/17 06:07:53;;;;;;;3.95;1.55;;;17.10;99.90;;;;;;4957094;29;20372;-70
2022/07/17 06:10:19;;;;;;;5.97;1.50;;;17.20;99.90;;;;;;4957347;29;20031;-70
2022/07/17 06:12:45;;;;;;;2.10;1.30;;;17.40;99.90;;;;;;4957062;29;20031;-70
2022/07/17 06:15:11;;;;;;;2.85;1.45;;;17.60;99.90;;;;;;4957649;29;20110;-71
2022/07/17 06:17:37;;;;;;;1.50;1.20;;;18.10;99.90;;;;;;4957131;29;20035;-74
2022/07/17 06:20:03;;;;;;;1.70;0.98;;;18.80;99.90;;;;;;4939788;29;20174;-76
2022/07/17 06:22:29;;;;;;;1.95;0.82;;;19.40;99.90;;;;;;4939239;29;20078;-76
2022/07/17 06:24:55;;;;;;;1.05;0.70;;;19.90;99.90;;;;;;4955635;29;20468;-75
2022/07/17 06:27:21;;;;;;;0.68;0.50;;;20.40;97.50;;;;;;4956647;29;20479;-64
2022/07/17 06:29:47;;;;;;;3.70;0.90;;;20.70;96.70;;;;;;4957108;29;20042;-67
2022/07/17 06:32:13;;;;;;;2.90;0.75;;;21.10;94.60;;;;;;4957171;29;20464;-69
2022/07/17 06:34:38;;;;;;;1.65;0.60;;;21.50;92.40;;;;;;4956878;29;20031;-68
2022/07/17 06:37:04;;;;;;;1.48;0.60;;;21.80;89.40;;;;;;4956839;29;20382;-69
2022/07/17 06:39:30;;;;;;;2.30;0.50;;;21.90;84.40;;;;;;4956228;28;20113;-69
2022/07/17 06:41:55;;;;;;;1.13;0.40;;;22.00;80.90;;;;;;4956513;29;20494;-67
2022/07/17 06:44:21;;;;;;;1.45;0.60;;;22.10;79.90;;;;;;4956260;29;20027;-67
2022/07/17 06:46:46;;;;;;;1.20;0.50;;;22.20;77.80;;;;;;4956574;29;20435;-67
2022/07/17 06:49:12;;;;;;;2.15;0.47;;;22.30;75.00;;;;;;4956171;29;20031;-67
2022/07/17 06:51:38;;;;;;;1.45;0.60;;;22.40;74.50;;;;;;4956397;29;20091;-81
2022/07/17 06:54:04;;;;;;;0.88;0.40;;;22.60;69.70;;;;;;4956649;29;20028;-81
2022/07/17 06:56:29;;;;;;;2.53;0.65;;;22.70;68.40;;;;;;4955000;29;20097;-81
2022/07/17 06:58:55;;;;;;;0.73;0.22;;;22.90;65.20;;;;;;4956144;29;20027;-75
2022/07/17 07:01:20;;;;;;;2.60;0.30;;;23.10;62.50;;;;;;4956968;29;20031;-82
2022/07/17 07:03:46;;;;;;;1.25;0.30;;;23.20;54.90;;;;;;4955097;29;20478;-77
2022/07/17 07:06:12;;;;;;;1.17;0.30;;;23.10;50.60;;;;;;4939382;29;20546;-78
2022/07/17 07:08:37;;;;;;;3.88;0.47;;;23.30;53.50;;;;;;4955108;29;20058;-83
2022/07/17 07:11:03;;;;;;;3.92;0.50;;;23.60;51.70;;;;;;4956168;29;20027;-76
2022/07/17 07:13:29;;;;;;;2.33;0.40;;;23.90;49.50;;;;;;4939358;29;20452;-76
2022/07/17 07:15:55;;;;;;;1.30;0.40;;;23.90;51.80;;;;;;4955754;29;20031;-76
2022/07/17 07:18:21;;;;;;;0.95;0.30;;;24.00;51.00;;;;;;4970637;28;20034;-76
2022/07/17 07:20:47;;;;;;;2.15;0.43;;;24.10;49.80;;;;;;4956165;29;20047;-76
2022/07/17 07:23:13;;;;;;;1.38;0.30;;;24.00;48.90;;;;;;4938131;29;20055;-76
2022/07/17 07:25:39;;;;;;;2.28;0.45;;;24.00;49.10;;;;;;4955667;29;20456;-67
2022/07/17 07:28:05;;;;;;;2.97;0.30;;;24.20;50.60;;;;;;4938434;29;20062;-64
2022/07/17 07:30:31;;;;;;;2.88;0.30;;;24.40;51.20;;;;;;4954731;28;20031;-66
2022/07/17 07:32:56;;;;;;;2.17;0.40;;;24.40;49.00;;;;;;4955199;29;20391;-69
2022/07/17 07:35:22;;;;;;;1.30;0.40;;;24.40;49.30;;;;;;4955786;29;20028;-67
2022/07/17 07:37:48;;;;;;;2.00;0.45;;;24.50;49.70;;;;;;4961896;28;20034;-66
2022/07/17 07:40:14;;;;;;;3.50;0.40;;;24.40;50.10;;;;;;4974758;28;20047;-68
2022/07/17 07:42:39;;;;;;;1.75;0.30;;;24.60;48.10;;;;;;4974955;28;20077;-67
2022/07/17 07:45:06;;;;;;;2.90;0.52;;;24.60;49.50;;;;;;4974940;28;20375;-69
2022/07/17 07:47:32;;;;;;;2.05;0.57;;;24.90;47.80;;;;;;4974795;28;20426;-67
2022/07/17 07:49:57;;;;;;;1.95;0.40;;;25.20;47.50;;;;;;4974795;28;20027;-70
2022/07/17 07:52:23;;;;;;;1.60;0.50;;;25.10;48.10;;;;;;4978726;28;20165;-68
2022/07/17 07:54:49;;;;;;;2.92;0.50;;;25.20;47.40;;;;;;4961954;28;20173;-69
2022/07/17 07:57:15;;;;;;;1.10;0.35;;;25.20;47.50;;;;;;4978603;28;20062;-68
2022/07/17 07:59:40;;;;;;;3.10;0.50;;;25.40;45.70;;;;;;4961559;28;20031;-69
2022/07/17 08:02:06;;;;;;;3.22;0.70;;;25.50;46.10;;;;;;4978440;28;20105;-70
2022/07/17 08:04:32;;;;;;;1.70;0.40;;;25.80;45.30;;;;;;4978716;28;20026;-70
2022/07/17 08:06:58;;;;;;;1.50;0.38;;;26.20;44.80;;;;;;4961191;28;20130;-67
2022/07/17 08:09:24;;;;;;;2.55;0.70;;;26.40;42.80;;;;;;4978640;28;20455;-64
2022/07/17 08:11:49;;;;;;;2.70;0.80;;;26.30;43.30;;;;;;4978566;28;20113;-68
2022/07/17 08:14:15;;;;;;;4.30;0.50;;;26.50;42.40;;;;;;4978710;28;20114;-67
2022/07/17 08:16:41;;;;;;;1.75;0.50;;;26.60;42.30;;;;;;4978449;28;20027;-68
2022/07/17 08:19:06;;;;;;;1.08;0.50;;;26.30;43.40;;;;;;4978171;28;20111;-67
2022/07/17 08:21:32;;;;;;;0.90;0.40;;;26.30;43.50;;;;;;4978242;28;20054;-69
2022/07/17 08:23:58;;;;;;;3.80;0.70;;;26.60;42.80;;;;;;4978067;28;20490;-68
2022/07/17 08:26:23;;;;;;;0.77;0.35;;;26.50;42.80;;;;;;4978014;28;20074;-68
2022/07/17 08:28:49;;;;;;;3.22;0.55;;;26.10;43.70;;;;;;4978520;28;20094;-67
2022/07/17 08:31:15;;;;;;;1.45;0.50;;;26.30;42.20;;;;;;4978032;28;20027;-68
2022/07/17 08:33:41;;;;;;;1.75;0.60;;;26.70;43.00;;;;;;4978081;28;20033;-64
2022/07/17 08:36:07;;;;;;;0.73;0.30;;;26.80;42.00;;;;;;4977791;28;20074;-68
2022/07/17 08:38:33;;;;;;;3.53;0.60;;;27.30;42.50;;;;;;4978120;28;20114;-67
2022/07/17 08:40:59;;;;;;;3.95;0.88;;;27.90;41.60;;;;;;4977966;28;20106;-68
2022/07/17 08:43:24;;;;;;;4.50;0.73;;;27.90;41.30;;;;;;4978033;28;20157;-68
2022/07/17 08:45:51;;;;;;;2.95;0.68;;;28.20;41.10;;;;;;4976704;28;20042;-68
2022/07/17 08:48:18;;;;;;;2.28;0.60;;;28.40;40.90;;;;;;4977518;28;20038;-67
2022/07/17 08:50:45;;;;;;;5.00;0.70;;;28.20;40.60;;;;;;4978228;28;20035;-66
